LF3923 weather

Public forecast

Using degrees Celsius for public forecast. Weather courtesy of forecast.io.

Closest aviation weather report (METAR) to Aérodrome de St Claude Pratz

Closest report is Geneva Cointrin International Airport, 16.6 nm (30.8 km) ESE. Retrieved 2020/08/11 19:20 UTC (3 minutes ago):

LSGG 111920Z VRB01KT CAVOK 25/18 Q1016 NOSIG

Closest aviation forecast (TAF) to Aérodrome de St Claude Pratz

Closest forecast is Geneva Cointrin International Airport, 16.6 nm (30.8 km) ESE. Retrieved 2020/08/11 18:33 UTC (50 minutes ago):

TAF TAF LSGG 111725Z 1118/1224 VRB03KT CAVOK TX33/1215Z TN19/1204Z BECMG 1210/1212 9999 FEW050TCU BECMG 1214/1216 22008KT PROB30 TEMPO 1214/1218 TS FEW050CB BECMG 1218/1220 VRB03KT CAVOK